LFKF/FSC METAR and TAF weather

Enter ICAO airport designator
Station Type Date Time Source
LFKF METAR 2019/02/16 07:30 UTC NOAA

LFKF 160730Z AUTO 10007KT CAVOK 10/03 Q1030 NOSIG


Station Type Date Time Source
LFKF Decoded METAR 2019/02/16 07:30 UTC NOAA

Figari, France (LFKF) 41-30N 009-06E 23M
Feb 16, 2019 - 02:30 AM EST / 2019.02.16 0730 UTC
Wind: from the E (100 degrees) at 8 MPH (7 KT):0
Visibility: greater than 7 mile(s):0
Temperature: 50 F (10 C)
Dew Point: 37 F (3 C)
Relative Humidity: 61%
Pressure (altimeter): 30.42 in. Hg (1030 hPa)
ob: LFKF 160730Z AUTO 10007KT CAVOK 10/03 Q1030 NOSIG
cycle: 7

Station Type Date Time Source
LFKF TAF 2019/02/16 03:24 UTC NOAA

TAF TAF LFKF 160200Z 1603/1703 06010KT CAVOK
BECMG 1614/1615 24010KT
BECMG 1618/1620 VRB05KT


Example: see airport list